Time;durP1;ratioP1;P1;durP2;ratioP2;P2;SDS_P1;SDS_P2;PMS_P1;PMS_P2;Temp;Humidity;BMP_temperature;BMP_pressure;BME280_temperature;BME280_humidity;BME280_pressure;Samples;Min_cycle;Max_cycle;Signal;HPM_P1;HPM_P2
2021/10/23 00:01:32;;;;;;;16.02;4.82;;;;;;;11.81;70.86;102129.44;5055385;28;20060;-55
2021/10/23 00:04:00;;;;;;;14.27;4.43;;;;;;;11.96;70.80;102136.81;5055642;28;20052;-59
2021/10/23 00:06:27;;;;;;;13.15;5.53;;;;;;;11.89;71.36;102139.06;5055485;28;20049;-57
2021/10/23 00:08:54;;;;;;;16.30;4.88;;;;;;;11.93;71.38;102137.34;5053821;28;20373;-59
2021/10/23 00:11:21;;;;;;;16.15;5.40;;;;;;;12.11;70.55;102133.91;5055620;28;20488;-57
2021/10/23 00:13:49;;;;;;;14.48;5.05;;;;;;;12.29;69.63;102134.00;5055762;28;20049;-57
2021/10/23 00:16:16;;;;;;;12.02;5.13;;;;;;;12.11;69.59;102129.22;5065201;28;20484;-55
2021/10/23 00:18:44;;;;;;;11.85;4.57;;;;;;;12.00;70.34;102137.84;5055261;28;20107;-59
2021/10/23 00:21:11;;;;;;;17.70;5.22;;;;;;;12.08;70.16;102132.53;5053227;28;20071;-56
2021/10/23 00:23:38;;;;;;;11.73;4.32;;;;;;;12.32;69.47;102125.16;5055482;28;20056;-58
2021/10/23 00:26:06;;;;;;;14.85;4.53;;;;;;;12.20;69.38;102129.41;5054962;28;20052;-58
2021/10/23 00:28:33;;;;;;;13.40;4.93;;;;;;;12.24;69.37;102130.47;5055121;28;20068;-57
2021/10/23 00:31:02;;;;;;;18.17;4.78;;;;;;;12.22;68.84;102141.00;5050284;28;20603;-58
2021/10/23 00:33:30;;;;;;;15.27;4.47;;;;;;;12.27;68.33;102136.22;5055282;28;20060;-57
2021/10/23 00:35:57;;;;;;;14.13;4.28;;;;;;;12.41;68.45;102144.69;5054325;28;20048;-57
2021/10/23 00:38:25;;;;;;;13.70;4.97;;;;;;;12.24;68.52;102138.75;5053335;28;20503;-57
2021/10/23 00:40:52;;;;;;;14.68;4.53;;;;;;;12.29;68.51;102147.00;5062501;28;20053;-55
2021/10/23 00:43:19;;;;;;;13.48;4.35;;;;;;;12.07;69.17;102149.38;5055362;28;20061;-57
2021/10/23 00:45:47;;;;;;;11.52;4.22;;;;;;;12.12;68.95;102143.81;5055075;28;20075;-58
2021/10/23 00:48:14;;;;;;;12.57;4.57;;;;;;;12.05;68.75;102140.56;5054648;28;20049;-59
2021/10/23 00:50:45;;;;;;;11.10;3.88;;;;;;;12.24;68.11;102131.28;5048944;28;20041;-55
2021/10/23 00:53:14;;;;;;;11.80;4.15;;;;;;;12.03;68.76;102137.28;5053369;28;20500;-57
2021/10/23 00:55:42;;;;;;;11.68;4.47;;;;;;;11.99;68.97;102137.03;5070441;28;20508;-57
2021/10/23 00:58:09;;;;;;;11.95;4.78;;;;;;;12.09;68.65;102136.97;5053340;28;20052;-57
2021/10/23 01:00:36;;;;;;;14.00;4.80;;;;;;;12.12;68.33;102138.31;5054726;28;20049;-57
2021/10/23 01:03:04;;;;;;;14.05;4.03;;;;;;;12.14;68.01;102130.56;5052385;28;20053;-57
2021/10/23 01:05:32;;;;;;;10.98;4.20;;;;;;;12.08;67.91;102134.50;5035133;28;20041;-54
2021/10/23 01:07:59;;;;;;;15.60;4.72;;;;;;;12.08;68.33;102124.25;5052910;28;20045;-57
2021/10/23 01:10:27;;;;;;;11.95;4.38;;;;;;;12.05;68.37;102133.13;5052058;28;20507;-56
2021/10/23 01:12:54;;;;;;;14.45;4.18;;;;;;;12.22;67.88;102136.28;5068723;28;20614;-59
2021/10/23 01:15:22;;;;;;;14.45;4.35;;;;;;;12.34;67.51;102133.94;5054116;28;20049;-56
2021/10/23 01:17:51;;;;;;;11.40;4.28;;;;;;;12.53;66.83;102136.81;5053508;28;20170;-58
2021/10/23 01:20:20;;;;;;;11.30;4.05;;;;;;;12.76;66.05;102132.44;5054471;28;20079;-58
2021/10/23 01:22:48;;;;;;;8.13;3.58;;;;;;;12.50;66.50;102128.28;5053158;28;20053;-57
2021/10/23 01:25:17;;;;;;;11.98;4.78;;;;;;;12.28;67.07;102129.59;5055209;28;20053;-57
2021/10/23 01:27:45;;;;;;;12.88;3.85;;;;;;;12.49;66.68;102130.22;5054523;28;20049;-57
2021/10/23 01:30:14;;;;;;;11.52;4.07;;;;;;;12.53;66.60;102120.25;5054929;28;20052;-56
2021/10/23 01:32:41;;;;;;;16.20;4.43;;;;;;;12.47;66.67;102124.16;5054628;28;20049;-57
2021/10/23 01:35:09;;;;;;;12.75;4.53;;;;;;;12.58;66.14;102119.34;5054440;28;20512;-56
2021/10/23 01:37:38;;;;;;;12.27;4.43;;;;;;;12.34;66.73;102120.13;5054221;28;20400;-57
2021/10/23 01:40:07;;;;;;;7.75;4.35;;;;;;;12.44;66.75;102117.28;5068297;28;20478;-58
2021/10/23 01:42:35;;;;;;;13.88;4.60;;;;;;;12.47;66.44;102118.63;5074375;28;20056;-56
2021/10/23 01:45:05;;;;;;;11.95;4.50;;;;;;;12.42;65.97;102113.16;5074342;28;20044;-56
2021/10/23 01:47:32;;;;;;;12.20;4.50;;;;;;;12.56;65.35;102107.75;5075333;28;20048;-57
2021/10/23 01:49:59;;;;;;;12.02;4.47;;;;;;;12.39;66.16;102114.59;5077815;28;20048;-54
2021/10/23 01:52:27;;;;;;;9.77;3.95;;;;;;;12.38;66.00;102115.69;5078131;28;20538;-56
2021/10/23 01:54:54;;;;;;;14.52;4.70;;;;;;;12.25;66.58;102115.53;5078227;28;20048;-55
2021/10/23 01:57:21;;;;;;;10.75;4.07;;;;;;;12.42;66.16;102111.22;5077754;28;20041;-58
2021/10/23 01:59:50;;;;;;;11.75;4.13;;;;;;;12.02;67.02;102099.72;5077831;28;20052;-57
2021/10/23 02:02:18;;;;;;;12.00;3.58;;;;;;;12.10;66.72;102107.41;5077811;28;20048;-58
2021/10/23 02:04:45;;;;;;;10.68;3.42;;;;;;;12.31;66.61;102111.59;5076349;28;20057;-58
2021/10/23 02:07:12;;;;;;;15.75;4.30;;;;;;;12.44;66.22;102109.00;5076436;28;20059;-57
2021/10/23 02:09:39;;;;;;;16.00;4.00;;;;;;;12.51;65.72;102103.13;5077609;28;20053;-57
2021/10/23 02:12:07;;;;;;;10.52;4.10;;;;;;;12.39;65.94;102103.53;5075910;28;20057;-56
2021/10/23 02:14:34;;;;;;;13.95;3.95;;;;;;;12.16;66.66;102095.19;5076055;28;20052;-57
2021/10/23 02:17:01;;;;;;;13.05;4.82;;;;;;;12.30;66.27;102090.63;5054590;28;20523;-57
2021/10/23 02:19:29;;;;;;;9.60;4.15;;;;;;;12.19;66.62;102089.91;5057638;28;20053;-57
2021/10/23 02:21:57;;;;;;;12.32;4.32;;;;;;;12.18;66.59;102091.03;5058214;28;20061;-59
2021/10/23 02:24:24;;;;;;;14.40;4.40;;;;;;;12.14;66.61;102086.34;5057305;28;20049;-55
2021/10/23 02:26:51;;;;;;;15.98;4.07;;;;;;;12.16;66.67;102087.72;5056042;28;20488;-53
2021/10/23 02:29:19;;;;;;;13.63;4.85;;;;;;;12.33;66.34;102090.03;5055898;28;20401;-60
2021/10/23 02:31:47;;;;;;;12.25;4.25;;;;;;;12.17;66.46;102088.53;5057594;28;20053;-57
2021/10/23 02:34:14;;;;;;;13.10;4.72;;;;;;;12.13;66.91;102081.97;5057545;28;20053;-58
2021/10/23 02:36:42;;;;;;;11.23;4.25;;;;;;;12.19;66.71;102081.63;5057218;28;20041;-57
2021/10/23 02:39:10;;;;;;;8.70;4.15;;;;;;;12.12;66.97;102085.81;5063493;28;20049;-59
2021/10/23 02:41:37;;;;;;;13.93;4.45;;;;;;;12.31;66.67;102083.97;5076242;28;20053;-58
2021/10/23 02:44:05;;;;;;;12.82;4.28;;;;;;;12.03;66.81;102082.88;5077468;28;20523;-59
2021/10/23 02:46:32;;;;;;;12.57;4.50;;;;;;;11.99;67.58;102084.59;5077331;28;20037;-57
2021/10/23 02:49:00;;;;;;;11.02;4.10;;;;;;;12.01;67.42;102096.13;5077149;28;20044;-58
2021/10/23 02:51:27;;;;;;;16.27;4.65;;;;;;;12.09;67.22;102094.69;5075853;28;20526;-59
2021/10/23 02:53:55;;;;;;;13.48;3.70;;;;;;;12.04;67.41;102091.97;5075411;28;20068;-58
2021/10/23 02:56:22;;;;;;;14.27;4.53;;;;;;;12.13;67.25;102093.00;5075786;28;20040;-60
2021/10/23 02:58:49;;;;;;;8.80;4.30;;;;;;;12.36;66.61;102100.53;5076398;28;20495;-59
2021/10/23 03:01:16;;;;;;;10.63;4.35;;;;;;;12.41;66.60;102097.72;5076917;28;20058;-59
2021/10/23 03:03:44;;;;;;;11.80;4.53;;;;;;;12.28;66.73;102092.84;5077225;28;20044;-56
2021/10/23 03:06:11;;;;;;;9.48;4.10;;;;;;;12.29;66.69;102100.03;5076572;28;20048;-54
2021/10/23 03:08:39;;;;;;;11.25;4.32;;;;;;;12.28;66.67;102101.97;5076204;28;20056;-55
2021/10/23 03:11:06;;;;;;;12.90;4.30;;;;;;;12.26;66.82;102103.38;5076808;28;20063;-58
2021/10/23 03:13:34;;;;;;;12.60;4.63;;;;;;;12.39;66.53;102099.94;5076525;28;20075;-57
2021/10/23 03:16:01;;;;;;;11.98;3.92;;;;;;;12.12;66.78;102102.41;5076267;28;20060;-56
2021/10/23 03:18:29;;;;;;;17.10;4.45;;;;;;;11.84;67.79;102095.72;5076167;28;20053;-56
2021/10/23 03:20:57;;;;;;;13.15;4.20;;;;;;;11.89;68.11;102100.41;5076907;28;20056;-55
2021/10/23 03:23:24;;;;;;;11.65;4.65;;;;;;;11.72;68.98;102099.97;5076436;28;20053;-57
2021/10/23 03:25:51;;;;;;;12.82;4.03;;;;;;;11.94;68.43;102098.41;5076285;28;20487;-56
2021/10/23 03:28:18;;;;;;;10.10;3.88;;;;;;;12.25;67.47;102101.72;5076075;28;20052;-56
2021/10/23 03:30:46;;;;;;;12.68;4.45;;;;;;;12.34;66.78;102100.78;5076010;28;20048;-59
2021/10/23 03:33:15;;;;;;;12.48;4.40;;;;;;;12.08;67.56;102095.81;5063916;28;20141;-57
2021/10/23 03:35:42;;;;;;;17.20;4.60;;;;;;;12.35;67.11;102098.88;5036031;28;20065;-57
2021/10/23 03:38:10;;;;;;;14.05;4.35;;;;;;;12.22;67.32;102091.28;5035992;28;20041;-55
2021/10/23 03:40:37;;;;;;;11.32;3.88;;;;;;;12.19;67.35;102097.34;5071532;28;20502;-55
2021/10/23 03:43:04;;;;;;;9.85;4.10;;;;;;;12.26;67.05;102100.59;5074574;28;20123;-57
2021/10/23 03:45:32;;;;;;;14.70;4.90;;;;;;;12.18;67.57;102104.00;5076308;28;20052;-57
2021/10/23 03:47:59;;;;;;;13.27;4.35;;;;;;;12.03;67.95;102095.88;5074372;28;20048;-58
2021/10/23 03:50:26;;;;;;;10.93;3.90;;;;;;;12.36;67.44;102087.50;5075475;28;20041;-56
2021/10/23 03:52:56;;;;;;;10.57;3.80;;;;;;;12.51;66.38;102088.47;5074441;28;20055;-56
2021/10/23 03:55:23;;;;;;;12.70;3.88;;;;;;;12.42;66.28;102091.06;5075776;28;20412;-58
2021/10/23 03:57:50;;;;;;;12.38;4.32;;;;;;;12.10;67.02;102088.88;5075430;28;20048;-57
2021/10/23 04:00:18;;;;;;;10.60;3.78;;;;;;;12.17;67.13;102088.53;5075448;28;20051;-57
2021/10/23 04:02:46;;;;;;;7.50;3.70;;;;;;;12.04;67.19;102091.97;5074332;28;20553;-57
2021/10/23 04:05:13;;;;;;;10.90;3.85;;;;;;;12.15;66.26;102094.34;5074165;28;20078;-58
2021/10/23 04:07:40;;;;;;;11.73;3.97;;;;;;;12.11;66.84;102086.94;5075437;28;20574;-58
2021/10/23 04:10:08;;;;;;;15.02;4.00;;;;;;;11.98;66.88;102088.44;5075239;28;20194;-57
2021/10/23 04:12:35;;;;;;;12.25;4.15;;;;;;;11.92;67.32;102089.63;5075563;28;20407;-58
2021/10/23 04:15:03;;;;;;;8.73;4.25;;;;;;;11.81;67.55;102088.03;5075680;28;20060;-56
2021/10/23 04:17:30;;;;;;;13.57;4.47;;;;;;;11.94;67.39;102084.59;5075279;28;20376;-57
2021/10/23 04:19:57;;;;;;;9.77;3.70;;;;;;;12.16;66.77;102081.38;5074997;28;20055;-57
2021/10/23 04:22:24;;;;;;;13.45;4.20;;;;;;;12.07;66.99;102088.63;5075388;28;20052;-56
2021/10/23 04:24:52;;;;;;;10.10;3.42;;;;;;;12.07;66.68;102085.88;5074116;28;20075;-57
2021/10/23 04:27:19;;;;;;;7.90;3.63;;;;;;;11.89;67.25;102083.84;5075391;28;20044;-56
2021/10/23 04:29:47;;;;;;;10.38;3.67;;;;;;;11.83;67.29;102080.28;5075234;28;20048;-58
2021/10/23 04:32:14;;;;;;;9.10;3.63;;;;;;;11.67;67.37;102083.44;5074158;28;20415;-59
2021/10/23 04:34:42;;;;;;;12.07;3.95;;;;;;;11.79;67.68;102081.13;5075056;28;20060;-60
2021/10/23 04:37:09;;;;;;;11.40;3.78;;;;;;;12.22;67.07;102081.03;5074037;28;20519;-55
2021/10/23 04:39:37;;;;;;;9.18;3.78;;;;;;;12.24;66.29;102080.72;5065316;28;20053;-57
2021/10/23 04:42:05;;;;;;;13.52;3.88;;;;;;;12.30;66.20;102085.94;5055197;28;20381;-56
2021/10/23 04:44:32;;;;;;;11.95;3.78;;;;;;;12.35;65.96;102087.81;5053688;28;20500;-59
2021/10/23 04:46:59;;;;;;;10.27;3.55;;;;;;;12.36;65.69;102089.47;5053847;28;20048;-58
2021/10/23 04:49:27;;;;;;;9.63;3.90;;;;;;;12.01;66.81;102089.81;5055205;28;20064;-60
2021/10/23 04:51:54;;;;;;;11.13;4.25;;;;;;;11.81;66.91;102090.78;5053798;28;20053;-57
2021/10/23 04:54:21;;;;;;;10.40;3.88;;;;;;;11.75;67.42;102096.66;5054767;28;20418;-56
2021/10/23 04:56:49;;;;;;;10.00;3.50;;;;;;;11.92;67.47;102091.53;5055035;28;20049;-58
2021/10/23 04:59:18;;;;;;;10.30;3.35;;;;;;;12.17;66.66;102091.28;5054871;28;20049;-61
2021/10/23 05:01:46;;;;;;;8.57;3.78;;;;;;;12.02;66.71;102097.81;5055104;28;20464;-58
2021/10/23 05:04:13;;;;;;;10.18;3.65;;;;;;;12.22;66.04;102091.28;5036803;28;20053;-61
2021/10/23 05:06:40;;;;;;;9.90;3.47;;;;;;;12.44;65.80;102095.19;5054068;28;20045;-57
2021/10/23 05:09:08;;;;;;;8.90;3.95;;;;;;;12.50;65.06;102093.16;5055274;28;20064;-55
2021/10/23 05:11:35;;;;;;;12.57;3.35;;;;;;;12.36;65.51;102093.03;5055613;28;20052;-57
2021/10/23 05:14:02;;;;;;;13.05;3.88;;;;;;;11.95;66.51;102105.59;5055372;28;20041;-55
2021/10/23 05:16:29;;;;;;;13.10;3.53;;;;;;;12.06;67.03;102109.09;5055028;28;20060;-55
2021/10/23 05:18:57;;;;;;;11.20;3.47;;;;;;;11.84;67.21;102108.69;5053516;28;20045;-56
2021/10/23 05:21:24;;;;;;;9.65;3.85;;;;;;;11.74;67.29;102104.09;5053619;28;20064;-55
2021/10/23 05:23:55;;;;;;;9.55;4.18;;;;;;;11.74;67.53;102106.03;5058038;28;20045;-57
2021/10/23 05:26:22;;;;;;;12.55;3.72;;;;;;;12.03;67.04;102115.19;5058733;28;20148;-57
2021/10/23 05:28:49;;;;;;;13.10;3.85;;;;;;;12.10;66.84;102108.22;5058515;28;20048;-60
2021/10/23 05:31:16;;;;;;;10.70;3.90;;;;;;;11.95;66.78;102108.34;5059067;28;20590;-59
2021/10/23 05:33:44;;;;;;;12.05;3.83;;;;;;;12.06;66.92;102104.41;5054969;28;20049;-60
2021/10/23 05:36:11;;;;;;;10.43;3.92;;;;;;;12.25;66.45;102107.25;5056647;28;20415;-61
2021/10/23 05:38:38;;;;;;;11.80;4.15;;;;;;;12.19;66.29;102108.41;5060404;28;20052;-58
2021/10/23 05:41:06;;;;;;;13.27;3.80;;;;;;;12.04;66.83;102105.78;5078463;28;20063;-57
2021/10/23 05:43:33;;;;;;;14.38;3.72;;;;;;;12.39;65.96;102103.53;5079056;28;20087;-58
2021/10/23 05:46:00;;;;;;;11.70;3.40;;;;;;;11.97;66.82;102105.31;5077124;28;20399;-61
2021/10/23 05:48:28;;;;;;;10.32;3.72;;;;;;;11.98;66.96;102109.69;5078253;28;20059;-60
2021/10/23 05:50:55;;;;;;;9.95;3.63;;;;;;;11.80;67.34;102108.47;5077957;28;20044;-57
2021/10/23 05:53:22;;;;;;;10.75;3.80;;;;;;;11.72;67.95;102108.25;5078086;28;20055;-59
2021/10/23 05:55:50;;;;;;;17.45;4.60;;;;;;;11.83;67.50;102110.66;5078361;28;20059;-58
2021/10/23 05:58:17;;;;;;;12.13;4.28;;;;;;;11.77;67.96;102105.47;5078279;28;20439;-59
2021/10/23 06:00:49;;;;;;;10.50;3.58;;;;;;;11.94;67.59;102114.16;5076689;28;20044;-61
2021/10/23 06:03:21;;;;;;;14.27;4.10;;;;;;;11.93;67.23;102105.06;5078375;28;20053;-59
2021/10/23 06:05:48;;;;;;;12.15;3.53;;;;;;;12.03;67.22;102109.69;5078368;28;20056;-59
2021/10/23 06:08:16;;;;;;;10.35;3.50;;;;;;;11.92;67.41;102121.91;5078000;28;20056;-59
2021/10/23 06:10:43;;;;;;;13.27;3.45;;;;;;;11.93;67.36;102124.38;5076596;28;20048;-55
2021/10/23 06:13:11;;;;;;;13.90;3.45;;;;;;;12.06;67.07;102122.91;5076298;28;20059;-58
2021/10/23 06:15:39;;;;;;;10.63;3.58;;;;;;;11.87;67.43;102121.94;5034918;28;20049;-55
2021/10/23 06:18:07;;;;;;;11.23;3.67;;;;;;;11.85;67.40;102129.69;5048429;28;20690;-58
2021/10/23 06:20:34;;;;;;;7.35;2.85;;;;;;;11.93;67.42;102123.53;5052418;28;20055;-60
2021/10/23 06:23:01;;;;;;;9.98;3.85;;;;;;;11.86;67.35;102123.06;5052831;28;20060;-57
2021/10/23 06:25:28;;;;;;;10.40;3.85;;;;;;;12.03;67.08;102126.25;5056413;28;20053;-56
2021/10/23 06:27:59;;;;;;;11.82;3.40;;;;;;;12.29;66.25;102122.16;5057251;28;20413;-58
2021/10/23 06:30:26;;;;;;;9.60;3.20;;;;;;;12.40;66.00;102126.44;5057041;28;20049;-56
2021/10/23 06:32:55;;;;;;;8.85;3.30;;;;;;;12.13;66.31;102129.72;5058550;28;20055;-57
2021/10/23 06:35:23;;;;;;;12.27;3.63;;;;;;;12.06;66.39;102142.22;5062234;28;20064;-57
2021/10/23 06:37:51;;;;;;;8.88;3.35;;;;;;;12.43;65.86;102137.75;5077130;28;20452;-56
2021/10/23 06:40:20;;;;;;;12.45;3.53;;;;;;;12.64;65.36;102135.59;5076832;28;20049;-56
2021/10/23 06:42:48;;;;;;;7.85;3.20;;;;;;;12.31;65.29;102140.06;5077349;28;20048;-55
2021/10/23 06:45:16;;;;;;;11.88;4.10;;;;;;;12.18;65.89;102140.75;5077290;28;20056;-58
2021/10/23 06:47:44;;;;;;;7.97;3.45;;;;;;;12.36;65.63;102144.75;5077082;28;20047;-58
2021/10/23 06:50:12;;;;;;;10.20;3.55;;;;;;;12.28;66.06;102146.19;5075289;28;20060;-58
2021/10/23 06:52:39;;;;;;;11.82;3.25;;;;;;;12.27;66.05;102152.00;5077095;28;20040;-59
2021/10/23 06:55:07;;;;;;;9.05;3.50;;;;;;;12.42;65.54;102154.63;5077051;28;20044;-58
2021/10/23 06:57:34;;;;;;;10.43;3.78;;;;;;;12.29;65.95;102155.31;5077299;28;20068;-57
2021/10/23 07:00:04;;;;;;;11.15;3.45;;;;;;;12.06;66.55;102162.41;5076340;28;20372;-59
2021/10/23 07:02:37;;;;;;;11.60;3.70;;;;;;;12.13;66.64;102164.81;5076948;28;20527;-58
2021/10/23 07:05:08;;;;;;;9.70;3.70;;;;;;;12.41;66.14;102170.34;5075290;28;20056;-58
2021/10/23 07:07:36;;;;;;;10.77;3.47;;;;;;;12.39;65.83;102169.00;5076623;28;20064;-59
2021/10/23 07:10:04;;;;;;;7.72;3.28;;;;;;;12.55;65.57;102172.47;5073037;28;20060;-56
2021/10/23 07:12:31;;;;;;;10.48;3.60;;;;;;;12.48;65.58;102173.59;5055344;28;20044;-59
2021/10/23 07:14:59;;;;;;;12.30;3.55;;;;;;;12.67;65.58;102179.25;5056529;28;20797;-56
2021/10/23 07:17:26;;;;;;;11.75;3.65;;;;;;;12.72;65.10;102184.72;5055217;28;20045;-58
2021/10/23 07:19:54;;;;;;;10.38;3.38;;;;;;;12.64;64.96;102187.31;5056564;28;20049;-55
2021/10/23 07:22:22;;;;;;;11.27;3.67;;;;;;;12.65;65.46;102191.72;5054802;28;20052;-56
2021/10/23 07:24:50;;;;;;;14.93;4.22;;;;;;;12.61;65.20;102188.69;5056248;28;20392;-58
2021/10/23 07:27:17;;;;;;;12.00;3.75;;;;;;;12.78;64.56;102193.78;5056373;28;20049;-57
2021/10/23 07:29:45;;;;;;;9.90;3.80;;;;;;;12.90;64.41;102199.75;5055982;28;20041;-62
2021/10/23 07:32:12;;;;;;;13.98;4.03;;;;;;;12.77;64.25;102198.50;5054659;28;20476;-59
2021/10/23 07:34:39;;;;;;;11.45;4.45;;;;;;;12.75;64.70;102199.88;5056032;28;20060;-55
2021/10/23 07:37:07;;;;;;;11.82;4.22;;;;;;;12.94;64.00;102206.31;5056103;28;20045;-58
2021/10/23 07:39:34;;;;;;;11.45;4.43;;;;;;;12.80;64.32;102213.66;5061197;28;20049;-55
2021/10/23 07:42:02;;;;;;;13.20;3.95;;;;;;;12.71;64.79;102216.25;5053842;28;20045;-55
2021/10/23 07:44:35;;;;;;;11.38;4.35;;;;;;;12.64;64.95;102215.75;5054693;28;20052;-56
2021/10/23 07:47:02;;;;;;;9.50;3.75;;;;;;;12.74;65.02;102215.69;5055592;28;20060;-57
2021/10/23 07:49:29;;;;;;;13.52;4.38;;;;;;;12.81;64.59;102215.31;5055239;28;20060;-58
2021/10/23 07:51:57;;;;;;;13.38;4.80;;;;;;;12.86;64.24;102229.94;5055917;28;20044;-57
2021/10/23 07:54:24;;;;;;;14.30;4.88;;;;;;;13.05;64.11;102230.03;5056590;28;20064;-57
2021/10/23 07:56:51;;;;;;;10.90;4.28;;;;;;;13.04;63.86;102222.88;5056612;28;20060;-57
2021/10/23 07:59:21;;;;;;;12.55;4.63;;;;;;;12.88;64.18;102229.63;5055806;28;20037;-58
2021/10/23 08:01:48;;;;;;;11.45;3.88;;;;;;;12.88;63.95;102236.00;5055654;28;20052;-60
2021/10/23 08:04:16;;;;;;;10.98;4.35;;;;;;;12.71;64.67;102235.59;5054613;28;20052;-57
2021/10/23 08:06:45;;;;;;;12.85;3.90;;;;;;;13.13;64.07;102230.22;5055770;28;20059;-57
2021/10/23 08:09:13;;;;;;;10.18;3.38;;;;;;;13.11;63.24;102237.97;5055788;28;20061;-57
2021/10/23 08:11:41;;;;;;;9.45;4.10;;;;;;;12.96;63.73;102228.97;5054035;28;20053;-57
2021/10/23 08:14:10;;;;;;;11.57;3.75;;;;;;;12.82;63.93;102233.56;5055629;28;20048;-60
2021/10/23 08:16:37;;;;;;;15.57;4.00;;;;;;;13.23;63.40;102240.34;5058418;28;20424;-57
2021/10/23 08:19:05;;;;;;;8.90;3.63;;;;;;;13.22;63.05;102233.16;5054669;28;20049;-55
2021/10/23 08:21:32;;;;;;;13.30;3.95;;;;;;;12.98;63.12;102244.19;5053969;28;20048;-56
2021/10/23 08:24:00;;;;;;;15.65;4.65;;;;;;;12.99;63.38;102237.53;5054801;28;20053;-57
2021/10/23 08:26:27;;;;;;;11.82;3.80;;;;;;;13.23;63.60;102227.31;5054910;28;20055;-58
2021/10/23 08:28:55;;;;;;;11.43;4.05;;;;;;;13.03;63.44;102235.88;5055346;28;20048;-56
2021/10/23 08:31:23;;;;;;;15.35;4.07;;;;;;;13.18;63.57;102238.44;5053528;28;20055;-56
2021/10/23 08:33:57;;;;;;;13.85;3.47;;;;;;;12.95;64.02;102233.72;5032313;28;20056;-56
2021/10/23 08:36:24;;;;;;;9.93;4.13;;;;;;;12.86;64.79;102234.63;5052699;28;20045;-56
2021/10/23 08:38:52;;;;;;;18.38;4.90;;;;;;;12.95;64.56;102232.88;5054311;28;20052;-58
2021/10/23 08:41:19;;;;;;;15.82;4.20;;;;;;;12.91;64.33;102232.63;5054345;28;20377;-58
2021/10/23 08:43:47;;;;;;;12.98;4.20;;;;;;;13.24;64.00;102231.75;5054571;28;20530;-55
2021/10/23 08:46:21;;;;;;;13.95;3.72;;;;;;;13.53;63.00;102234.44;5055353;28;20067;-57
2021/10/23 08:48:54;;;;;;;15.80;3.92;;;;;;;13.31;63.55;102236.94;5055103;28;20060;-57
2021/10/23 08:51:22;;;;;;;16.17;4.00;;;;;;;13.30;63.26;102240.81;5047876;28;20496;-56
2021/10/23 08:53:50;;;;;;;14.68;4.00;;;;;;;13.54;62.89;102231.38;5046965;28;20056;-55
2021/10/23 08:56:17;;;;;;;13.05;3.72;;;;;;;13.47;62.62;102239.22;5047600;28;20053;-53
2021/10/23 08:58:45;;;;;;;12.70;4.30;;;;;;;13.46;62.88;102239.50;5057120;28;20049;-56
2021/10/23 09:01:14;;;;;;;10.55;3.92;;;;;;;13.57;62.75;102235.50;5057282;28;20435;-55
2021/10/23 09:03:48;;;;;;;11.27;3.83;;;;;;;13.76;62.15;102241.06;5058198;28;20060;-56
2021/10/23 09:06:36;;;;;;;10.88;5.88;;;;;;;13.87;61.80;102245.34;5057746;28;20053;-55
2021/10/23 09:09:10;;;;;;;18.35;5.88;;;;;;;13.84;62.12;102246.78;5057752;28;20068;-54
2021/10/23 09:11:45;;;;;;;16.10;4.45;;;;;;;13.91;61.98;102235.31;5050741;28;20044;-59
2021/10/23 09:14:31;;;;;;;11.63;4.88;;;;;;;13.78;62.23;102236.03;5057359;28;20053;-60
2021/10/23 09:17:06;;;;;;;13.98;4.50;;;;;;;13.78;62.26;102233.28;5052987;28;20080;-60
2021/10/23 09:19:53;;;;;;;11.32;4.45;;;;;;;13.83;61.92;102234.03;5059765;28;20064;-59
2021/10/23 09:22:32;;;;;;;13.98;4.60;;;;;;;13.84;61.99;102238.47;5054944;28;20056;-61
2021/10/23 09:25:09;;;;;;;11.80;4.17;;;;;;;13.71;62.15;102232.81;5055923;28;20053;-59
2021/10/23 09:27:48;;;;;;;13.65;4.72;;;;;;;13.86;61.98;102238.16;5058409;28;20045;-62
2021/10/23 09:30:16;;;;;;;9.95;4.03;;;;;;;13.43;62.91;102240.09;5057548;28;20565;-62
2021/10/23 09:32:55;;;;;;;12.45;4.53;;;;;;;13.43;63.18;102242.88;5055900;28;20045;-57
2021/10/23 09:35:26;;;;;;;10.90;4.40;;;;;;;13.58;63.33;102231.63;5061942;28;20064;-60
2021/10/23 09:37:59;;;;;;;15.00;4.22;;;;;;;13.85;62.41;102234.56;5053987;28;20052;-60
2021/10/23 09:40:29;;;;;;;12.40;4.32;;;;;;;14.27;61.25;102228.13;5043768;28;20053;-59
2021/10/23 09:43:16;;;;;;;11.25;5.63;;;;;;;13.86;61.90;102232.63;5038317;28;20049;-58
2021/10/23 09:45:59;;;;;;;15.05;4.88;;;;;;;14.24;60.65;102228.72;5057752;28;20048;-58
2021/10/23 09:48:48;;;;;;;12.90;5.00;;;;;;;14.03;61.59;102219.91;5038073;28;20500;-60
2021/10/23 09:51:21;;;;;;;11.77;5.00;;;;;;;14.29;60.77;102218.41;5055858;28;20048;-60
2021/10/23 09:53:54;;;;;;;15.82;4.82;;;;;;;14.24;60.81;102223.97;5055160;28;20044;-60
2021/10/23 09:56:29;;;;;;;14.60;4.57;;;;;;;14.30;61.14;102220.03;5056727;28;20056;-60
2021/10/23 09:59:01;;;;;;;13.90;4.68;;;;;;;14.37;60.81;102225.19;5057437;28;20049;-59
2021/10/23 10:01:31;;;;;;;11.18;4.47;;;;;;;14.42;60.73;102217.63;5056968;28;20621;-58
2021/10/23 10:04:05;;;;;;;9.20;5.07;;;;;;;14.75;60.09;102228.72;5057435;28;20083;-66
2021/10/23 10:06:34;;;;;;;11.60;4.95;;;;;;;14.44;60.35;102231.19;5056664;28;20053;-66
2021/10/23 10:09:02;;;;;;;25.25;10.18;;;;;;;14.46;60.56;102223.38;5057242;28;20053;-62
2021/10/23 10:11:31;;;;;;;16.23;6.80;;;;;;;14.52;60.35;102225.75;5055630;28;20049;-62
2021/10/23 10:13:59;;;;;;;16.25;5.60;;;;;;;14.23;60.96;102227.88;5055171;28;20045;-61
2021/10/23 10:16:29;;;;;;;16.88;4.90;;;;;;;14.25;61.32;102227.59;5040370;28;20046;-65
2021/10/23 10:18:57;;;;;;;14.50;5.20;;;;;;;14.49;60.52;102229.16;5036490;28;20045;-61
2021/10/23 10:21:26;;;;;;;12.90;4.75;;;;;;;14.51;60.56;102228.84;5049717;28;20053;-63
2021/10/23 10:23:54;;;;;;;9.52;4.25;;;;;;;14.46;60.57;102226.16;5056809;28;20075;-62
2021/10/23 10:26:24;;;;;;;10.30;5.07;;;;;;;14.25;60.55;102224.81;5072649;28;20053;-60
2021/10/23 10:32:10;;;;;;;12.10;5.05;;;;;;;14.54;60.22;102229.06;5064701;28;20059;-62
2021/10/23 10:42:55;;;;;;;16.17;5.03;;;;;;;14.47;60.40;102222.28;5076960;28;20055;-61
2021/10/23 10:45:23;;;;;;;14.35;5.15;;;;;;;14.48;60.29;102224.75;5077135;28;20052;-61
2021/10/23 10:48:12;;;;;;;16.30;5.20;;;;;;;14.60;60.31;102224.25;5077018;28;20063;-61
2021/10/23 10:50:40;;;;;;;19.45;6.50;;;;;;;14.53;60.38;102216.34;5038510;28;20046;-63
2021/10/23 10:53:27;;;;;;;16.42;6.00;;;;;;;14.59;59.92;102222.63;5055912;28;20049;-63
2021/10/23 10:56:05;;;;;;;12.07;5.13;;;;;;;14.68;59.44;102217.19;5038897;28;20056;-63
2021/10/23 10:58:55;;;;;;;9.93;5.07;;;;;;;14.64;59.60;102214.22;5055735;28;20064;-62
2021/10/23 11:01:30;;;;;;;14.80;5.45;;;;;;;14.78;59.49;102208.69;5056840;28;20057;-61
2021/10/23 11:04:05;;;;;;;15.70;4.85;;;;;;;14.93;58.52;102200.91;5056760;28;20056;-63
2021/10/23 11:06:33;;;;;;;11.88;4.35;;;;;;;14.85;58.75;102200.78;5056000;28;20053;-62
2021/10/23 11:11:45;;;;;;;12.10;4.65;;;;;;;15.06;57.96;102196.50;5053105;28;20056;-63
2021/10/23 11:14:27;;;;;;;19.65;7.25;;;;;;;15.14;58.54;102202.16;5051007;28;20063;-64
2021/10/23 11:19:31;;;;;;;22.73;8.27;;;;;;;15.39;57.36;102196.09;5056284;28;20052;-62
2021/10/23 11:22:01;;;;;;;13.55;6.03;;;;;;;15.43;57.21;102194.34;5055172;28;20049;-63
2021/10/23 11:24:44;;;;;;;15.77;4.70;;;;;;;15.55;56.63;102191.88;5054820;28;20068;-62
2021/10/23 11:27:33;;;;;;;11.95;4.25;;;;;;;15.53;55.59;102193.31;5052575;28;20057;-62
2021/10/23 11:30:10;;;;;;;18.23;4.50;;;;;;;15.62;55.58;102191.47;5054512;28;20055;-63
2021/10/23 11:32:44;;;;;;;15.50;4.28;;;;;;;15.67;54.48;102192.16;5036286;28;20521;-64
2021/10/23 11:35:11;;;;;;;14.30;4.38;;;;;;;15.25;55.47;102188.91;5046014;28;20053;-62
2021/10/23 11:37:39;;;;;;;9.45;3.15;;;;;;;15.43;54.73;102177.69;5054920;28;20056;-62
2021/10/23 11:40:08;;;;;;;13.75;2.60;;;;;;;15.58;53.59;102179.31;5052786;28;20053;-61
2021/10/23 11:42:45;;;;;;;11.85;2.60;;;;;;;15.74;52.53;102175.88;5055094;28;20107;-60
2021/10/23 11:45:27;;;;;;;10.40;3.05;;;;;;;15.62;53.09;102181.16;5050007;28;20057;-63